Aviation Digital Data Service (ADDS)

Output produced by METARs form (0305 UTC 24 June 2021)
found at http://aviationweather.gov/metar/data/
 
METAR text: EYKA 240250Z 00000KT 1200 0150E R08/1200D BR PRFG OVC003 17/16 Q1018
Conditions at: EYKA (KAUNAS , LT) observed 0250 UTC 24 June 2021
Temperature: 17.0°C (63°F)
Dewpoint: 16.0°C (61°F) [RH = 94%]
Pressure (altimeter): 30.06 inches Hg (1018.0 mb)
Winds: calm
Visibility: 0.75 miles (1.21 km)
Ceiling: 300 feet AGL
Clouds: overcast cloud deck at 300 feet AGL
Weather: PRFG BR  (partial fog, mist)

METAR text: EYKA 240220Z 22002KT 0900 0200E R08/0750D FG BKN002 17/16 Q1018
Conditions at: EYKA (KAUNAS , LT) observed 0220 UTC 24 June 2021
Temperature: 17.0°C (63°F)
Dewpoint: 16.0°C (61°F) [RH = 94%]
Pressure (altimeter): 30.06 inches Hg (1018.0 mb)
Winds: from the SW (220 degrees) at 2 MPH (2 knots; 1.0 m/s)
Visibility: 0.56 miles (0.90 km)
Ceiling: 200 feet AGL
Clouds: broken clouds at 200 feet AGL
Weather: FG  (fog)

METAR text: EYKA 240150Z 26002KT 0350 R08/1100D FG BKN002 17/16 Q1018
Conditions at: EYKA (KAUNAS , LT) observed 0150 UTC 24 June 2021
Temperature: 17.0°C (63°F)
Dewpoint: 16.0°C (61°F) [RH = 94%]
Pressure (altimeter): 30.06 inches Hg (1018.0 mb)
Winds: from the W (260 degrees) at 2 MPH (2 knots; 1.0 m/s)
Visibility: 0.22 miles (0.35 km)
Ceiling: 200 feet AGL
Clouds: broken clouds at 200 feet AGL
Weather: FG  (fog)

METAR text: EYKA 240120Z 23002KT 2200 BR MIFG FEW003 18/16 Q1018
Conditions at: EYKA (KAUNAS , LT) observed 0120 UTC 24 June 2021
Temperature: 18.0°C (64°F)
Dewpoint: 16.0°C (61°F) [RH = 88%]
Pressure (altimeter): 30.06 inches Hg (1018.0 mb)
Winds: from the SW (230 degrees) at 2 MPH (2 knots; 1.0 m/s)
Visibility: 1.37 miles (2.20 km)
Ceiling: at least 12,000 feet AGL
Clouds: few clouds at 300 feet AGL
Weather: BR MIFG  (mist, shallow fog)

Forecast for: AMD
Text: TAF AMD EYKA 240227Z 2402/2424 VRB05KT 0500 FG BKN002
Forecast period: 0200 to 0300 UTC 24 June 2021
Forecast type: FROM: standard forecast or significant change
Winds: variable direction winds at 6 MPH (5 knots; 2.6 m/s)
Visibility: 0.31 miles (0.50 km)
Ceiling: 200 feet AGL
Clouds: broken clouds at 200 feet AGL
Weather: FG  (fog)
Text: BECMG 2403/2405 5000 BR SCT005
Forecast period: 0300 to 0500 UTC 24 June 2021
Forecast type: BECOMING: Conditions expected to become as follows by 0500 UTC 24 June 2021
Winds: variable direction winds at 6 MPH (5 knots; 2.6 m/s)
Visibility: 3 miles (5 km)
Ceiling: at least 12,000 feet AGL
Clouds: scattered clouds at 500 feet AGL
Weather: BR  (mist)
Text: BECMG 2405/2406 9000 SCT045
Forecast period: 0500 to 0900 UTC 24 June 2021
Forecast type: BECOMING: Conditions expected to become as follows by 0600 UTC 24 June 2021
Winds: variable direction winds at 6 MPH (5 knots; 2.6 m/s)
Visibility: 6 miles (9 km)
Ceiling: at least 12,000 feet AGL
Clouds: scattered clouds at 4500 feet AGL
Weather: BR  (mist)
Text: BECMG 2409/2411 SCT030CB BKN045
Forecast period: 0900 UTC 24 June 2021 to 0000 UTC 25 June 2021
Forecast type: BECOMING: Conditions expected to become as follows by 1100 UTC 24 June 2021
Winds: variable direction winds at 6 MPH (5 knots; 2.6 m/s)
Visibility: 6 miles (9 km)
Ceiling: 4500 feet AGL
Clouds: scattered clouds at 3000 feet AGL
broken clouds at 4500 feet AGL
Weather: BR  (mist)
Text: TEMPO 2412/2418 VRB30KT 1500 TSRA SCT005 BKN015CB
Forecast period: 1200 to 1800 UTC 24 June 2021
Forecast type: TEMPORARY: The following changes expected for less than half the time period
Winds: variable direction winds at 34 MPH (30 knots; 15.4 m/s)
Visibility: 0.93 miles (1.50 km)
Ceiling: 1500 feet AGL
Clouds: scattered clouds at 500 feet AGL
broken clouds at 1500 feet AGL
Weather: TSRA  (rain associated with thunderstorm(s))